createdAt,value
2023-01-02T00:00:21.550Z,96635.94
2023-01-02T00:02:48.718Z,96625.84
2023-01-02T00:05:18.362Z,96656.00
2023-01-02T00:07:45.053Z,96639.38
2023-01-02T00:10:11.985Z,96660.28
2023-01-02T00:12:38.634Z,96634.53
2023-01-02T00:15:05.653Z,96656.19
2023-01-02T00:17:32.301Z,96659.69
2023-01-02T00:19:58.925Z,96646.66
2023-01-02T00:22:25.558Z,96583.78
2023-01-02T00:24:52.196Z,96643.78
2023-01-02T00:27:18.936Z,96661.91
2023-01-02T00:29:45.765Z,96627.00
2023-01-02T00:32:12.351Z,96666.81
2023-01-02T00:34:39.001Z,96649.69
2023-01-02T00:37:05.573Z,96635.22
2023-01-02T00:39:32.267Z,96646.94
2023-01-02T00:41:58.884Z,96633.59
2023-01-02T00:44:28.393Z,96595.03
2023-01-02T00:46:55.079Z,96631.50
2023-01-02T00:49:21.765Z,96603.31
2023-01-02T00:51:48.394Z,96641.59
2023-01-02T00:54:14.996Z,96585.97
2023-01-02T00:56:44.504Z,96602.13
2023-01-02T00:59:11.201Z,96608.03
2023-01-02T01:01:37.998Z,96613.19
2023-01-02T01:04:04.777Z,96652.63
2023-01-02T01:06:31.415Z,96607.94
2023-01-02T01:08:59.286Z,96623.56
2023-01-02T01:11:26.223Z,96636.63
2023-01-02T01:13:53.161Z,96614.97
2023-01-02T01:16:20.782Z,96610.84
2023-01-02T01:18:47.668Z,96639.19
2023-01-02T01:21:20.179Z,96636.31
2023-01-02T01:23:52.202Z,96552.00
2023-01-02T01:26:19.300Z,96590.69
2023-01-02T01:28:46.222Z,96612.97
2023-01-02T01:31:15.359Z,96626.78
2023-01-02T01:33:43.121Z,96608.75
2023-01-02T01:36:23.878Z,96613.66
2023-01-02T01:38:51.199Z,96614.97
2023-01-02T01:41:23.701Z,96637.31
2023-01-02T01:43:53.731Z,96625.94
2023-01-02T01:46:29.415Z,96630.16
2023-01-02T01:49:11.411Z,96614.47
2023-01-02T01:51:45.759Z,96583.78
2023-01-02T01:54:15.307Z,96593.88
2023-01-02T01:56:49.030Z,96543.78
2023-01-02T01:59:16.538Z,96550.88
2023-01-02T02:01:45.149Z,96553.56
2023-01-02T02:04:13.697Z,96575.00
2023-01-02T02:06:40.873Z,96562.56
2023-01-02T02:09:31.486Z,96554.41
2023-01-02T02:11:58.295Z,96545.66
2023-01-02T02:14:25.037Z,96555.63
2023-01-02T02:16:54.837Z,96548.34
2023-01-02T02:19:36.770Z,96542.19
2023-01-02T02:22:18.485Z,96534.28
2023-01-02T02:25:15.501Z,96540.09
2023-01-02T02:28:15.160Z,96544.66
2023-01-02T02:30:52.454Z,96569.59
2023-01-02T02:33:34.451Z,96567.78
2023-01-02T02:36:19.489Z,96567.88
2023-01-02T02:39:08.915Z,96568.31
2023-01-02T02:41:38.288Z,96574.13
2023-01-02T02:44:30.215Z,96572.34
2023-01-02T02:46:57.018Z,96565.66
2023-01-02T02:49:49.147Z,96568.63
2023-01-02T02:52:27.877Z,96560.03
2023-01-02T02:55:00.798Z,96539.44
2023-01-02T02:57:29.171Z,96505.00
2023-01-02T02:59:56.265Z,96509.97
2023-01-02T03:02:23.133Z,96481.38
2023-01-02T03:04:58.919Z,96528.34
2023-01-02T03:07:44.251Z,96540.88
2023-01-02T03:10:13.819Z,96545.25
2023-01-02T03:12:47.457Z,96520.38
2023-01-02T03:15:24.675Z,96540.66
2023-01-02T03:18:29.317Z,96540.28
2023-01-02T03:21:06.706Z,96511.44
2023-01-02T03:23:41.270Z,96533.56
2023-01-02T03:26:08.276Z,96504.38
2023-01-02T03:28:39.532Z,96533.75
2023-01-02T03:31:09.728Z,96536.94
2023-01-02T03:33:42.294Z,96536.34
2023-01-02T03:36:16.851Z,96523.38
2023-01-02T03:39:15.295Z,96539.25
2023-01-02T03:41:46.604Z,96534.38
2023-01-02T03:44:16.129Z,96534.66
2023-01-02T03:46:53.436Z,96531.28
2023-01-02T03:49:30.110Z,96516.03
2023-01-02T03:51:56.811Z,96481.22
2023-01-02T03:54:23.666Z,96531.69
2023-01-02T03:57:11.269Z,96529.59
2023-01-02T03:59:55.118Z,96534.81
2023-01-02T04:02:52.236Z,96532.25
2023-01-02T04:05:44.605Z,96518.16
2023-01-02T04:08:28.868Z,96443.88
2023-01-02T04:10:59.165Z,96511.94
2023-01-02T04:14:04.426Z,96508.03
2023-01-02T04:16:34.551Z,96506.72
2023-01-02T04:19:08.500Z,96516.19
2023-01-02T04:21:38.968Z,96512.50
2023-01-02T04:24:09.284Z,96490.22
2023-01-02T04:26:44.297Z,96470.66
2023-01-02T04:29:11.475Z,96487.63
2023-01-02T04:31:49.022Z,96504.16
2023-01-02T04:34:18.022Z,96521.56
2023-01-02T04:36:45.169Z,96501.44
2023-01-02T04:39:11.839Z,96507.94
2023-01-02T04:41:39.425Z,96520.41
2023-01-02T04:44:06.382Z,96504.31
2023-01-02T04:46:33.328Z,96527.25
2023-01-02T04:49:00.059Z,96511.09
2023-01-02T04:51:27.044Z,96532.75
2023-01-02T04:53:54.153Z,96524.50
2023-01-02T04:56:21.710Z,96529.22
2023-01-02T04:58:49.879Z,96534.94
2023-01-02T05:01:19.356Z,96531.81
2023-01-02T05:03:49.459Z,96524.34
2023-01-02T05:06:16.450Z,96504.28
2023-01-02T05:08:43.691Z,96529.84
2023-01-02T05:11:16.015Z,96530.72
2023-01-02T05:13:42.901Z,96528.63
2023-01-02T05:16:10.357Z,96532.50
2023-01-02T05:18:37.482Z,96507.28
2023-01-02T05:21:06.953Z,96539.63
2023-01-02T05:23:51.455Z,96520.75
2023-01-02T05:26:18.409Z,96513.97
2023-01-02T05:28:45.529Z,96537.84
2023-01-02T05:31:12.772Z,96542.78
2023-01-02T05:33:39.407Z,96532.88
2023-01-02T05:36:08.072Z,96538.88
2023-01-02T05:38:39.749Z,96538.19
2023-01-02T05:41:07.607Z,96538.69
2023-01-02T05:43:36.883Z,96531.97
2023-01-02T05:46:15.911Z,96523.91
2023-01-02T05:48:44.400Z,96509.31
2023-01-02T05:51:13.561Z,96529.03
2023-01-02T05:53:40.427Z,96530.31
2023-01-02T05:56:12.565Z,96515.00
2023-01-02T05:58:41.403Z,96526.16
2023-01-02T06:01:11.551Z,96545.47
2023-01-02T06:03:39.119Z,96534.03
2023-01-02T06:06:10.561Z,96548.34
2023-01-02T06:08:37.854Z,96528.84
2023-01-02T06:11:05.752Z,96550.69
2023-01-02T06:13:34.681Z,96546.38
2023-01-02T06:16:03.543Z,96521.44
2023-01-02T06:18:32.134Z,96546.91
2023-01-02T06:21:04.467Z,96529.47
2023-01-02T06:23:31.095Z,96540.38
2023-01-02T06:26:09.634Z,96544.78
2023-01-02T06:28:36.788Z,96514.13
2023-01-02T06:31:09.116Z,96510.50
2023-01-02T06:33:36.178Z,96538.81
2023-01-02T06:36:05.740Z,96509.91
2023-01-02T06:38:32.515Z,96518.25
2023-01-02T06:41:01.061Z,96530.00
2023-01-02T06:43:29.084Z,96543.31
2023-01-02T06:46:04.908Z,96546.69
2023-01-02T06:48:33.444Z,96543.03
2023-01-02T06:51:00.713Z,96548.25
2023-01-02T06:53:27.863Z,96500.91
2023-01-02T06:55:58.556Z,96543.81
2023-01-02T06:58:29.011Z,96499.34
2023-01-02T07:00:55.723Z,96523.00
2023-01-02T07:03:22.308Z,96515.50
2023-01-02T07:05:48.886Z,96544.91
2023-01-02T07:08:15.490Z,96487.94
2023-01-02T07:10:42.097Z,96533.69
2023-01-02T07:13:08.715Z,96523.03
2023-01-02T07:15:36.239Z,96548.53
2023-01-02T07:18:02.787Z,96530.34
2023-01-02T07:20:29.589Z,96550.09
2023-01-02T07:22:56.249Z,96523.59
2023-01-02T07:25:22.861Z,96545.94
2023-01-02T07:27:49.592Z,96527.47
2023-01-02T07:30:16.308Z,96561.34
2023-01-02T07:32:43.453Z,96527.25
2023-01-02T07:35:10.476Z,96563.13
2023-01-02T07:37:37.082Z,96562.84
2023-01-02T07:40:03.948Z,96528.78
2023-01-02T07:42:30.564Z,96565.97
2023-01-02T07:44:57.195Z,96536.06
2023-01-02T07:47:23.793Z,96565.72
2023-01-02T07:49:50.361Z,96568.59
2023-01-02T07:52:16.958Z,96565.22
2023-01-02T07:54:43.517Z,96539.47
2023-01-02T07:57:10.155Z,96548.53
2023-01-02T07:59:36.677Z,96576.88
2023-01-02T08:02:03.428Z,96558.47
2023-01-02T08:04:30.142Z,96564.94
2023-01-02T08:06:56.740Z,96554.19
2023-01-02T08:09:23.322Z,96565.41
2023-01-02T08:11:49.874Z,96585.44
2023-01-02T08:14:23.098Z,96573.69
2023-01-02T08:16:50.243Z,96556.78
2023-01-02T08:19:16.875Z,96570.78
2023-01-02T08:21:43.458Z,96574.44
2023-01-02T08:24:10.235Z,96587.69
2023-01-02T08:26:38.562Z,96588.16
2023-01-02T08:29:05.255Z,96589.97
2023-01-02T08:31:31.900Z,96530.13
2023-01-02T08:33:58.549Z,96583.66
2023-01-02T08:36:25.236Z,96554.47
2023-01-02T08:38:51.838Z,96508.59
2023-01-02T08:41:36.325Z,96594.13
2023-01-02T08:44:05.321Z,96594.06
2023-01-02T08:46:38.551Z,96580.75
2023-01-02T08:49:09.123Z,96570.63
2023-01-02T08:51:35.685Z,96592.38
2023-01-02T08:54:02.248Z,96578.03
2023-01-02T08:56:31.698Z,96594.38
2023-01-02T08:59:02.690Z,96603.69
2023-01-02T09:01:30.890Z,96557.53
2023-01-02T09:03:58.428Z,96609.47
2023-01-02T09:06:26.820Z,96592.94
2023-01-02T09:08:56.489Z,96599.94
2023-01-02T09:11:36.918Z,96617.91
2023-01-02T09:14:04.700Z,96617.03
2023-01-02T09:16:32.138Z,96588.31
2023-01-02T09:19:00.352Z,96610.78
2023-01-02T09:21:28.375Z,96616.03
2023-01-02T09:23:55.134Z,96628.47
2023-01-02T09:26:21.747Z,96622.56
2023-01-02T09:28:48.342Z,96589.75
2023-01-02T09:31:16.894Z,96613.50
2023-01-02T09:33:45.372Z,96578.66
2023-01-02T09:36:14.097Z,96592.34
2023-01-02T09:38:40.800Z,96597.28
2023-01-02T09:41:20.636Z,96619.78
2023-01-02T09:43:53.990Z,96614.22
2023-01-02T09:46:30.526Z,96622.63
2023-01-02T09:48:59.080Z,96600.63
2023-01-02T09:51:25.984Z,96612.34
2023-01-02T09:53:52.632Z,96594.06
2023-01-02T09:56:36.780Z,96606.88
2023-01-02T09:59:06.353Z,96622.84
2023-01-02T10:02:01.241Z,96608.72
2023-01-02T10:04:57.133Z,96590.44
2023-01-02T10:07:38.321Z,96619.75
2023-01-02T10:10:39.572Z,96620.72
2023-01-02T10:13:17.808Z,96631.44
2023-01-02T10:15:47.671Z,96618.91
2023-01-02T10:18:27.371Z,96622.19
2023-01-02T10:21:01.361Z,96628.97
2023-01-02T10:23:57.966Z,96598.72
2023-01-02T10:26:31.748Z,96591.13
2023-01-02T10:29:14.144Z,96607.47
2023-01-02T10:31:46.665Z,96602.41
2023-01-02T10:34:23.736Z,96623.38
2023-01-02T10:36:51.014Z,96607.31
2023-01-02T10:39:24.442Z,96612.38
2023-01-02T10:41:57.540Z,96595.63
2023-01-02T10:44:40.098Z,96595.69
2023-01-02T10:47:32.914Z,96630.78
2023-01-02T10:50:01.201Z,96631.41
2023-01-02T10:52:39.618Z,96594.25
2023-01-02T10:55:06.549Z,96610.78
2023-01-02T10:57:36.143Z,96609.25
2023-01-02T11:00:04.533Z,96611.44
2023-01-02T11:02:38.077Z,96614.94
2023-01-02T11:05:07.358Z,96613.25
2023-01-02T11:07:37.300Z,96601.66
2023-01-02T11:10:04.731Z,96627.59
2023-01-02T11:12:32.990Z,96628.09
2023-01-02T11:15:13.436Z,96613.00
2023-01-02T11:17:42.619Z,96613.94
2023-01-02T11:20:38.720Z,96607.13
2023-01-02T11:23:06.289Z,96601.56
2023-01-02T11:25:41.300Z,96593.78
2023-01-02T11:28:16.912Z,96588.50
2023-01-02T11:30:53.044Z,96609.13
2023-01-02T11:33:21.559Z,96609.13
2023-01-02T11:35:50.430Z,96611.88
2023-01-02T11:38:28.905Z,96599.31
2023-01-02T11:41:03.578Z,96609.69
2023-01-02T11:43:52.188Z,96608.69
2023-01-02T11:46:32.509Z,96613.69
2023-01-02T11:49:06.658Z,96610.19
2023-01-02T11:51:35.201Z,96606.91
2023-01-02T11:54:05.103Z,96577.25
2023-01-02T11:56:36.855Z,96583.88
2023-01-02T11:59:07.005Z,96590.56
2023-01-02T12:01:48.985Z,96603.25
2023-01-02T12:04:16.158Z,96589.47
2023-01-02T12:06:54.906Z,96615.81
2023-01-02T12:09:31.953Z,96548.88
2023-01-02T12:12:17.336Z,96620.91
2023-01-02T12:15:04.776Z,96597.38
2023-01-02T12:17:37.368Z,96619.09
2023-01-02T12:20:41.702Z,96623.50
2023-01-02T12:23:37.799Z,96628.56
2023-01-02T12:26:09.987Z,96617.25
2023-01-02T12:28:55.243Z,96651.41
2023-01-02T12:32:05.975Z,96606.41
2023-01-02T12:34:56.258Z,96644.63
2023-01-02T12:37:55.608Z,96616.66
2023-01-02T12:40:28.293Z,96624.69
2023-01-02T12:43:07.037Z,96637.31
2023-01-02T12:46:01.647Z,96655.81
2023-01-02T12:48:40.070Z,96642.25
2023-01-02T12:51:14.505Z,96618.78
2023-01-02T12:54:19.225Z,96640.06
2023-01-02T12:57:09.194Z,96624.50
2023-01-02T13:00:03.399Z,96633.88
2023-01-02T13:02:52.066Z,96638.56
2023-01-02T13:05:22.104Z,96647.16
2023-01-02T13:07:53.364Z,96643.59
2023-01-02T13:10:23.767Z,96628.81
2023-01-02T13:12:51.370Z,96651.88
2023-01-02T13:15:25.473Z,96645.81
2023-01-02T13:17:55.271Z,96643.41
2023-01-02T13:20:59.740Z,96640.22
2023-01-02T13:23:34.545Z,96648.22
2023-01-02T13:26:05.620Z,96638.41
2023-01-02T13:28:33.839Z,96628.56
2023-01-02T13:31:44.032Z,96627.34
2023-01-02T13:33:54.647Z,96630.03
2023-01-02T13:36:24.082Z,96644.38
2023-01-02T13:38:55.039Z,96638.75
2023-01-02T13:41:22.345Z,96643.16
2023-01-02T13:43:54.265Z,96614.97
2023-01-02T13:47:02.556Z,96633.31
2023-01-02T13:49:23.445Z,96636.28
2023-01-02T13:51:59.816Z,96634.19
2023-01-02T13:54:35.560Z,96655.53
2023-01-02T13:57:34.542Z,96667.56
2023-01-02T14:00:15.310Z,96664.91
2023-01-02T14:03:05.191Z,96656.09
2023-01-02T14:05:56.971Z,96657.75
2023-01-02T14:08:25.154Z,96661.19
2023-01-02T14:10:56.980Z,96622.38
2023-01-02T14:13:46.190Z,96659.63
2023-01-02T14:16:43.063Z,96668.25
2023-01-02T14:19:12.639Z,96679.38
2023-01-02T14:21:58.055Z,96674.41
2023-01-02T14:24:36.180Z,96675.72
2023-01-02T14:27:24.112Z,96653.13
2023-01-02T14:29:54.040Z,96664.63
2023-01-02T14:32:42.795Z,96631.59
2023-01-02T14:35:15.658Z,96674.84
2023-01-02T14:37:46.793Z,96652.56
2023-01-02T14:40:22.429Z,96682.22
2023-01-02T14:43:19.326Z,96672.22
2023-01-02T14:45:56.993Z,96647.78
2023-01-02T14:48:31.783Z,96670.91
2023-01-02T14:51:09.090Z,96682.97
2023-01-02T14:53:55.486Z,96678.03
2023-01-02T14:56:28.366Z,96658.00
2023-01-02T14:58:56.531Z,96678.50
2023-01-02T15:01:43.689Z,96676.84
2023-01-02T15:04:22.959Z,96675.00
2023-01-02T15:07:01.258Z,96675.13
2023-01-02T15:09:38.000Z,96690.84
2023-01-02T15:12:41.376Z,96670.16
2023-01-02T15:15:13.363Z,96704.16
2023-01-02T15:17:40.769Z,96675.75
2023-01-02T15:20:09.429Z,96690.66
2023-01-02T15:22:37.867Z,96702.00
2023-01-02T15:25:04.905Z,96702.00
2023-01-02T15:27:33.756Z,96729.66
2023-01-02T15:30:03.280Z,96715.03
2023-01-02T15:32:32.743Z,96728.38
2023-01-02T15:35:35.040Z,96729.47
2023-01-02T15:38:04.672Z,96724.69
2023-01-02T15:40:34.935Z,96728.09
2023-01-02T15:43:28.617Z,96727.78
2023-01-02T15:45:55.828Z,96726.38
2023-01-02T15:48:28.528Z,96714.09
2023-01-02T15:50:59.704Z,96732.53
2023-01-02T15:53:32.261Z,96738.75
2023-01-02T15:55:59.156Z,96723.06
2023-01-02T15:58:31.067Z,96742.81
2023-01-02T16:01:21.585Z,96753.91
2023-01-02T16:04:01.967Z,96746.28
2023-01-02T16:06:39.316Z,96720.66
2023-01-02T16:09:18.254Z,96730.59
2023-01-02T16:11:51.322Z,96752.81
2023-01-02T16:14:25.964Z,96720.94
2023-01-02T16:16:58.420Z,96767.22
2023-01-02T16:19:31.154Z,96718.00
2023-01-02T16:22:06.533Z,96771.91
2023-01-02T16:24:36.055Z,96729.97
2023-01-02T16:27:04.531Z,96784.38
2023-01-02T16:29:31.304Z,96761.19
2023-01-02T16:32:00.831Z,96788.72
2023-01-02T16:34:35.977Z,96788.38
2023-01-02T16:37:10.127Z,96772.22
2023-01-02T16:39:41.387Z,96782.97
2023-01-02T16:42:26.525Z,96763.03
2023-01-02T16:44:55.459Z,96791.00
2023-01-02T16:47:31.654Z,96750.91
2023-01-02T16:49:58.319Z,96775.03
2023-01-02T16:52:25.124Z,96795.09
2023-01-02T16:54:54.215Z,96810.00
2023-01-02T16:57:23.154Z,96747.03
2023-01-02T16:59:49.709Z,96805.00
2023-01-02T17:02:16.337Z,96773.75
2023-01-02T17:04:42.993Z,96791.50
2023-01-02T17:07:12.016Z,96816.81
2023-01-02T17:09:41.144Z,96801.13
2023-01-02T17:12:10.743Z,96820.75
2023-01-02T17:14:37.351Z,96796.31
2023-01-02T17:17:04.152Z,96823.22
2023-01-02T17:19:31.298Z,96799.13
2023-01-02T17:21:57.899Z,96820.41
2023-01-02T17:24:24.552Z,96804.56
2023-01-02T17:26:51.196Z,96797.41
2023-01-02T17:29:17.793Z,96805.31
2023-01-02T17:31:44.502Z,96816.69
2023-01-02T17:34:11.092Z,96805.63
2023-01-02T17:36:37.782Z,96808.56
2023-01-02T17:39:04.525Z,96825.50
2023-01-02T17:41:31.197Z,96829.09
2023-01-02T17:44:02.559Z,96832.84
2023-01-02T17:47:04.317Z,96806.06
2023-01-02T17:49:18.165Z,96820.66
2023-01-02T17:51:44.810Z,96810.38
2023-01-02T17:54:11.390Z,96811.53
2023-01-02T17:56:39.124Z,96807.75
2023-01-02T17:59:06.230Z,96831.47
2023-01-02T18:01:33.334Z,96810.91
2023-01-02T18:04:00.121Z,96850.41
2023-01-02T18:06:26.785Z,96851.69
2023-01-02T18:08:57.227Z,96829.59
2023-01-02T18:11:24.033Z,96847.66
2023-01-02T18:13:53.792Z,96848.25
2023-01-02T18:16:29.375Z,96848.94
2023-01-02T18:18:56.076Z,96782.75
2023-01-02T18:21:26.028Z,96846.19
2023-01-02T18:23:56.725Z,96843.91
2023-01-02T18:26:25.548Z,96853.63
2023-01-02T18:29:02.840Z,96851.84
2023-01-02T18:31:44.473Z,96849.34
2023-01-02T18:34:46.414Z,96854.44
2023-01-02T18:37:22.567Z,96849.50
2023-01-02T18:39:50.153Z,96854.81
2023-01-02T18:42:23.206Z,96839.91
2023-01-02T18:44:51.609Z,96844.38
2023-01-02T18:47:34.311Z,96862.16
2023-01-02T18:50:19.804Z,96879.25
2023-01-02T18:52:50.133Z,96847.53
2023-01-02T18:55:24.886Z,96864.78
2023-01-02T18:58:23.761Z,96868.88
2023-01-02T19:00:53.008Z,96878.50
2023-01-02T19:03:26.940Z,96882.41
2023-01-02T19:05:53.951Z,96862.97
2023-01-02T19:08:36.307Z,96879.44
2023-01-02T19:11:34.653Z,96856.91
2023-01-02T19:14:10.095Z,96890.50
2023-01-02T19:16:40.959Z,96876.78
2023-01-02T19:19:21.167Z,96876.34
2023-01-02T19:21:49.747Z,96877.41
2023-01-02T19:24:19.129Z,96907.13
2023-01-02T19:26:48.624Z,96902.91
2023-01-02T19:29:21.599Z,96871.00
2023-01-02T19:31:57.325Z,96892.84
2023-01-02T19:34:27.633Z,96885.97
2023-01-02T19:37:01.271Z,96907.00
2023-01-02T19:39:35.410Z,96883.97
2023-01-02T19:42:20.221Z,96870.25
2023-01-02T19:44:49.392Z,96916.78
2023-01-02T19:47:16.905Z,96906.53
2023-01-02T19:49:43.771Z,96910.47
2023-01-02T19:52:11.316Z,96914.47
2023-01-02T19:54:39.164Z,96927.34
2023-01-02T19:57:07.216Z,96923.19
2023-01-02T19:59:38.609Z,96897.63
2023-01-02T20:02:10.251Z,96908.66
2023-01-02T20:04:37.046Z,96908.06
2023-01-02T20:07:03.801Z,96932.91
2023-01-02T20:09:30.576Z,96952.84
2023-01-02T20:12:15.806Z,96932.72
2023-01-02T20:14:43.428Z,96958.88
2023-01-02T20:17:11.129Z,96953.28
2023-01-02T20:19:38.871Z,96958.41
2023-01-02T20:22:06.235Z,96964.91
2023-01-02T20:24:33.480Z,96963.22
2023-01-02T20:27:01.937Z,96935.78
2023-01-02T20:29:30.996Z,96952.63
2023-01-02T20:31:59.062Z,96944.69
2023-01-02T20:34:26.028Z,96925.53
2023-01-02T20:36:53.854Z,96928.78
2023-01-02T20:39:20.556Z,96943.97
2023-01-02T20:41:47.236Z,96953.53
2023-01-02T20:44:14.528Z,96962.25
2023-01-02T20:46:41.454Z,96966.25
2023-01-02T20:49:08.815Z,96976.81
2023-01-02T20:51:36.083Z,96980.63
2023-01-02T20:54:05.620Z,96964.31
2023-01-02T20:56:32.390Z,96995.59
2023-01-02T20:58:59.192Z,96999.91
2023-01-02T21:01:26.486Z,97004.38
2023-01-02T21:03:53.775Z,97015.19
2023-01-02T21:06:20.785Z,97012.78
2023-01-02T21:08:47.564Z,97016.38
2023-01-02T21:11:14.177Z,97004.47
2023-01-02T21:13:41.109Z,96996.16
2023-01-02T21:16:07.753Z,96993.84
2023-01-02T21:18:36.918Z,97026.72
2023-01-02T21:21:10.925Z,97022.34
2023-01-02T21:23:40.431Z,97052.88
2023-01-02T21:26:10.429Z,97049.34
2023-01-02T21:28:38.686Z,97070.09
2023-01-02T21:31:06.239Z,97060.31
2023-01-02T21:33:33.451Z,97065.00
2023-01-02T21:36:02.256Z,97073.34
2023-01-02T21:38:29.471Z,97061.91
2023-01-02T21:41:16.888Z,97054.09
2023-01-02T21:43:43.525Z,97071.19
2023-01-02T21:46:10.149Z,97037.59
2023-01-02T21:48:38.167Z,97071.25
2023-01-02T21:51:05.812Z,97056.22
2023-01-02T21:53:32.469Z,97072.44
2023-01-02T21:55:59.820Z,97049.38
2023-01-02T21:58:26.744Z,97084.59
2023-01-02T22:00:53.512Z,97088.31
2023-01-02T22:03:20.257Z,97093.88
2023-01-02T22:05:47.146Z,97091.63
2023-01-02T22:08:14.109Z,97094.66
2023-01-02T22:10:40.813Z,97089.41
2023-01-02T22:13:07.485Z,97072.09
2023-01-02T22:15:34.098Z,97105.09
2023-01-02T22:18:00.739Z,97102.47
2023-01-02T22:20:27.477Z,97107.16
2023-01-02T22:22:54.169Z,97094.03
2023-01-02T22:25:20.860Z,97105.72
2023-01-02T22:27:47.568Z,97122.91
2023-01-02T22:30:29.420Z,97118.22
2023-01-02T22:33:00.552Z,97112.69
2023-01-02T22:35:27.728Z,97126.13
2023-01-02T22:37:54.371Z,97094.38
2023-01-02T22:40:21.164Z,97133.91
2023-01-02T22:43:08.998Z,97112.94
2023-01-02T22:45:45.276Z,97138.22
2023-01-02T22:48:37.174Z,97153.59
2023-01-02T22:51:07.365Z,97142.28
2023-01-02T22:53:36.007Z,97145.41
2023-01-02T22:56:12.101Z,97130.69
2023-01-02T22:58:38.718Z,97116.78
2023-01-02T23:01:18.389Z,97137.78
2023-01-02T23:03:46.940Z,97114.16
2023-01-02T23:06:20.061Z,97143.88
2023-01-02T23:08:48.904Z,97144.88
2023-01-02T23:11:15.567Z,97147.78
2023-01-02T23:13:42.695Z,97161.66
2023-01-02T23:16:27.783Z,97179.88
2023-01-02T23:19:13.191Z,97182.78
2023-01-02T23:21:42.170Z,97177.13
2023-01-02T23:24:08.839Z,97145.81
2023-01-02T23:26:49.460Z,97181.50
2023-01-02T23:29:17.477Z,97189.47
2023-01-02T23:31:47.642Z,97192.69
2023-01-02T23:34:16.934Z,97174.63
2023-01-02T23:36:44.358Z,97154.06
2023-01-02T23:39:14.547Z,97151.16
2023-01-02T23:41:42.923Z,97175.13
2023-01-02T23:44:10.864Z,97166.78
2023-01-02T23:46:37.726Z,97158.88
2023-01-02T23:49:05.169Z,97185.63
2023-01-02T23:51:32.057Z,97189.19
2023-01-02T23:53:59.473Z,97188.53
2023-01-02T23:56:30.554Z,97178.00
2023-01-02T23:58:59.169Z,97180.72
